Tropical Cyclones
[Index]
Main Index Home Page Stock Weather Photos Extreme Storms Discussion Storm News and Storm Chasing Reports Tropical Cyclones / Hurricanes / Typhoons Weather Data and Links Wild Fires / Bushfires Weather Observation Techniques Weather Picture Catalogue Tornado Pictures and Reports Stock Video Footage and DVDs for sale
Season 2015-2016 Tropical Cyclone AMOS Track Map
Season 2015-2016 Summaries (Operational Data): [AU] [SIO] [SPAC] [SH]
<<- Previous TC | 2015-2016 Season | Next TC ->>

click for intensity scale information  Lat/long Grid: Show Hide

 Date Labels: Show Hide

Operational Tropical Cyclone Data : JTWC Advisories

Name: AMOS
Number: 1620

14 Apr 2016 06:00 UTC to 27 Apr 2016 06:00 UTC

    date/time    lat    long     hPa   cat  kts
2016-04-14 06   12.9   173.8    1005                     
2016-04-14 12   13.6   172.5    1007                     
2016-04-14 18   13.5   173.8    1010         15          
2016-04-15 00   13.9   174.2    1010         15          
2016-04-15 06   14.2   174.6    1004         25          
2016-04-15 12   14.5   175.0    1003         25          
2016-04-15 18   14.8   175.5    1002         25          
2016-04-16 00   15.4   176.1    1002         25          
2016-04-16 06   16.0   176.9    1004         25          
2016-04-16 12   16.6   177.7    1002         25          
2016-04-16 18   17.2   178.6    1004         25          
2016-04-17 00   17.4   179.5    1004         25          
2016-04-17 06   17.2   179.4W   1002         25          
2016-04-17 12   16.7   178.4W   1002         25          
2016-04-17 18   16.4   177.6W   1004         25          
2016-04-18 00   16.1   176.9W   1000         30          
2016-04-18 06   15.7   176.3W   1000         30          
2016-04-18 12   15.1   175.7W   1000         30          
2016-04-18 18   14.8   175.6W   1003         25          
2016-04-19 00   14.4   175.8W   1004         25          
2016-04-19 06   14.1   176.0W   1002         25          
2016-04-19 12   13.7   176.7W   1002         30          
2016-04-19 18   13.5   177.5W   1000         30          
2016-04-20 00   13.2   178.1W   1000         30          
2016-04-20 06   12.9   178.5W    996    1    35          
2016-04-20 12   12.8   178.8W    996    1    35          
2016-04-20 18   12.6   179.6W    993    1    40          
2016-04-21 00   12.7   179.5W    989    1    45          
2016-04-21 06   12.7   179.2W    985    2    50          
2016-04-21 12   12.7   178.9W    982    2    55          
2016-04-21 18   12.7   178.2W    982    2    55          
2016-04-22 00   12.5   177.6W    974    3    65          
2016-04-22 06   12.4   177.1W    967    3    75          
2016-04-22 09   12.3   176.7W    963    3    80          
2016-04-22 12   12.3   176.3W    956    4    90          
2016-04-22 16   12.3   176.0W    956    4    90          
2016-04-22 18   12.3   175.7W    956    4    90          
2016-04-23 00   12.4   174.7W    956    4    90          
2016-04-23 06   12.8   173.2W    956    4    90          
2016-04-23 12   13.2   172.2W    956    4    90          
2016-04-23 18   13.5   171.6W    959    3    85          
2016-04-24 00   13.7   170.9W    970    3    70          
2016-04-24 06   13.7   170.2W    985    2    50          
2016-04-24 12   13.7   169.5W    993    1    40          
2016-04-24 18   14.0   168.6W   1002    1    35          
2016-04-25 00   14.7   168.4W   1005         30          
2016-04-25 06   14.9   167.8W   1006         25          
2016-04-25 12   14.7   166.9W   1007         20          
2016-04-25 18   15.0   167.0W   1002                     
2016-04-26 00   14.7   167.1W   1005                     
2016-04-26 06   16.0   162.5W   1004                     
2016-04-26 12   15.1   165.8W   1006                     
2016-04-26 18   15.3   167.0W   1005                     
2016-04-27 00   15.6   164.3W   1007                     
2016-04-27 06   15.0   169.3W   1007                     
Winds are 10-min average.

Tropical cyclone tracks developed by Michael Bath using operational warnings and advisories and Google Maps.


[Australian Severe Weather index] [Copyright Notice] [Email Contacts] [Search This Site] [Privacy Policy]
Document: tropical_cyclone_amos.htm Updated: 2 May 2017